Time;durP1;ratioP1;P1;durP2;ratioP2;P2;SDS_P1;SDS_P2;PMS_P1;PMS_P2;Temp;Humidity;BMP_temperature;BMP_pressure;BME280_temperature;BME280_humidity;BME280_pressure;Samples;Min_cycle;Max_cycle;Signal;HPM_P1;HPM_P2
2021/06/26 00:02:18;;;;;;;8.82;3.83;;;;;;;18.94;56.68;101088.34;5069502;28;20071;-84
2021/06/26 00:04:45;;;;;;;5.95;3.88;;;;;;;18.90;57.17;101088.75;5043783;28;20076;-84
2021/06/26 00:07:12;;;;;;;8.02;3.90;;;;;;;18.86;57.54;101098.00;5060506;28;20151;-84
2021/06/26 00:09:40;;;;;;;5.63;4.03;;;;;;;18.74;57.93;101101.75;5057516;28;20128;-83
2021/06/26 00:12:07;;;;;;;4.93;4.30;;;;;;;18.64;58.48;101099.84;5055961;28;20453;-83
2021/06/26 00:14:34;;;;;;;6.22;4.68;;;;;;;18.63;58.76;101095.44;5080509;28;20539;-84
2021/06/26 00:17:02;;;;;;;8.32;4.43;;;;;;;18.64;58.61;101096.28;5054207;28;20075;-85
2021/06/26 00:19:30;;;;;;;5.93;4.25;;;;;;;18.65;58.81;101098.84;5044893;28;20048;-84
2021/06/26 00:21:57;;;;;;;5.00;4.22;;;;;;;18.60;59.08;101100.22;5067743;28;20036;-83
2021/06/26 00:24:24;;;;;;;5.40;4.03;;;;;;;18.59;59.40;101101.19;5060684;28;20048;-85
2021/06/26 00:26:52;;;;;;;6.43;4.32;;;;;;;18.56;59.61;101096.97;5063501;28;20487;-83
2021/06/26 00:29:19;;;;;;;5.60;4.35;;;;;;;18.52;59.88;101102.69;5040290;28;20048;-83
2021/06/26 00:31:46;;;;;;;7.90;4.25;;;;;;;18.48;60.13;101100.28;5050638;28;20424;-84
2021/06/26 00:34:14;;;;;;;7.25;4.72;;;;;;;18.51;60.14;101101.84;5048002;28;20379;-83
2021/06/26 00:36:41;;;;;;;6.68;4.88;;;;;;;18.39;60.86;101098.38;5057634;28;20663;-84
2021/06/26 00:39:08;;;;;;;5.82;4.28;;;;;;;18.25;61.53;101105.88;5079206;28;20284;-84
2021/06/26 00:41:35;;;;;;;5.93;4.85;;;;;;;18.21;62.07;101105.25;5056242;28;20469;-83
2021/06/26 00:44:07;;;;;;;6.90;4.70;;;;;;;18.14;62.06;101102.25;5044307;28;20075;-84
2021/06/26 00:46:35;;;;;;;5.32;4.72;;;;;;;18.11;62.58;101112.34;5037964;28;20538;-85
2021/06/26 00:49:03;;;;;;;9.48;4.88;;;;;;;18.05;62.78;101115.50;5051775;28;20062;-85
2021/06/26 00:51:30;;;;;;;6.95;4.97;;;;;;;18.03;63.10;101110.31;5056557;28;20409;-84
2021/06/26 00:53:58;;;;;;;6.20;4.93;;;;;;;18.13;63.09;101115.72;5057672;28;20200;-84
2021/06/26 00:56:25;;;;;;;5.93;4.53;;;;;;;17.99;63.47;101114.19;5052179;28;20788;-84
2021/06/26 00:59:09;;;;;;;6.75;4.68;;;;;;;17.88;64.48;101112.41;5061426;28;20513;-85
2021/06/26 01:01:36;;;;;;;7.78;4.85;;;;;;;17.74;64.57;101115.34;5056128;28;20111;-84
2021/06/26 01:04:03;;;;;;;7.50;5.40;;;;;;;17.50;65.72;101117.28;5058712;28;20038;-84
2021/06/26 01:06:30;;;;;;;6.75;4.32;;;;;;;17.36;66.19;101116.59;5062496;28;20131;-83
2021/06/26 01:08:57;;;;;;;6.28;4.97;;;;;;;17.35;66.54;101116.72;5055309;28;20056;-83
2021/06/26 01:15:32;;;;;;;5.70;5.10;;;;;;;17.43;67.17;101112.47;5068409;28;20527;-83
2021/06/26 01:17:59;;;;;;;6.07;5.00;;;;;;;17.24;67.48;101116.69;5051359;28;20436;-84
2021/06/26 01:20:26;;;;;;;6.32;4.68;;;;;;;17.21;68.01;101117.81;5064051;28;20063;-83
2021/06/26 01:22:59;;;;;;;7.93;5.32;;;;;;;17.07;68.41;101110.91;5058913;28;20127;-84
2021/06/26 01:25:28;;;;;;;5.15;4.65;;;;;;;16.87;69.70;101117.78;5080111;28;20048;-84
2021/06/26 01:27:58;;;;;;;7.32;5.25;;;;;;;17.02;69.49;101115.75;5030948;28;20114;-84
2021/06/26 01:30:28;;;;;;;9.00;5.88;;;;;;;16.92;69.66;101114.75;5067033;28;20051;-84
2021/06/26 01:32:56;;;;;;;6.25;5.22;;;;;;;16.82;70.09;101106.66;5032885;28;20136;-84
2021/06/26 01:35:24;;;;;;;10.65;5.63;;;;;;;16.83;70.04;101112.81;5035971;28;20122;-83
2021/06/26 01:37:51;;;;;;;14.80;6.30;;;;;;;16.73;70.48;101112.69;5042720;28;20087;-83
2021/06/26 01:40:20;;;;;;;7.47;5.53;;;;;;;16.63;71.36;101128.47;5053031;28;20104;-83
2021/06/26 01:42:48;;;;;;;9.02;6.07;;;;;;;16.55;71.62;101120.22;5078125;28;20058;-82
2021/06/26 01:45:16;;;;;;;6.45;5.82;;;;;;;16.49;72.22;101123.34;5043262;28;20060;-83
2021/06/26 01:47:50;;;;;;;10.30;5.78;;;;;;;16.46;72.21;101119.09;5059555;28;20083;-84
2021/06/26 01:50:19;;;;;;;10.25;6.30;;;;;;;16.40;72.67;101124.03;5056601;28;20134;-83
2021/06/26 01:52:47;;;;;;;8.10;5.82;;;;;;;16.33;73.26;101122.81;5045478;28;20131;-83
2021/06/26 01:55:16;;;;;;;8.85;5.78;;;;;;;16.24;73.78;101120.84;5055847;28;20135;-83
2021/06/26 01:57:45;;;;;;;10.63;7.68;;;;;;;16.16;74.12;101124.06;5053459;28;20099;-84
2021/06/26 02:00:12;;;;;;;7.35;6.53;;;;;;;16.05;74.52;101129.31;5050830;28;20056;-83
2021/06/26 02:02:40;;;;;;;8.25;6.88;;;;;;;16.05;75.17;101134.66;5048850;28;20052;-84
2021/06/26 02:05:08;;;;;;;7.32;6.55;;;;;;;16.04;75.28;101125.81;5066699;28;20125;-85
2021/06/26 02:07:36;;;;;;;9.07;6.70;;;;;;;16.11;75.19;101126.22;5038713;28;20045;-84
2021/06/26 02:10:07;;;;;;;8.60;6.35;;;;;;;16.19;75.13;101122.03;5058403;28;20525;-84
2021/06/26 02:12:34;;;;;;;8.43;6.32;;;;;;;16.19;75.10;101126.50;5060359;28;20070;-83
2021/06/26 02:15:06;;;;;;;9.52;6.47;;;;;;;16.36;74.53;101130.56;5066593;28;20194;-83
2021/06/26 02:17:33;;;;;;;8.65;6.55;;;;;;;16.52;74.15;101136.38;5056583;28;20555;-84
2021/06/26 02:20:01;;;;;;;6.85;5.90;;;;;;;16.63;73.35;101138.25;5041430;28;20471;-84
2021/06/26 02:22:28;;;;;;;8.02;6.55;;;;;;;16.60;73.56;101134.00;5059163;28;20056;-84
2021/06/26 02:24:56;;;;;;;11.32;7.00;;;;;;;16.64;73.70;101138.13;5076742;28;20052;-82
2021/06/26 02:27:23;;;;;;;10.55;6.63;;;;;;;16.67;73.37;101137.91;5080456;28;20056;-84
2021/06/26 02:29:50;;;;;;;10.95;6.40;;;;;;;16.87;72.76;101139.03;5063438;28;20040;-83
2021/06/26 02:32:17;;;;;;;7.72;6.93;;;;;;;16.71;73.11;101139.34;5072657;28;20083;-82
2021/06/26 02:34:44;;;;;;;7.15;6.45;;;;;;;16.70;73.87;101136.78;5076560;28;20124;-82
2021/06/26 02:37:12;;;;;;;11.98;6.32;;;;;;;16.75;73.79;101133.81;5084063;28;20434;-82
2021/06/26 02:39:39;;;;;;;7.57;6.50;;;;;;;16.76;74.15;101135.53;5066206;28;20192;-85
2021/06/26 02:42:06;;;;;;;8.02;6.20;;;;;;;16.81;73.88;101136.88;5061288;28;20701;-82
2021/06/26 02:44:33;;;;;;;8.38;6.13;;;;;;;16.82;73.83;101140.38;5044152;28;20111;-84
2021/06/26 02:47:00;;;;;;;9.68;6.15;;;;;;;16.80;74.55;101142.31;5051310;28;20051;-83
2021/06/26 02:49:28;;;;;;;8.52;6.28;;;;;;;16.71;74.59;101142.03;5065378;28;20098;-86
2021/06/26 02:51:56;;;;;;;14.10;6.60;;;;;;;16.64;75.16;101139.94;5044084;28;20056;-84
2021/06/26 02:54:23;;;;;;;10.02;5.78;;;;;;;16.68;74.91;101144.06;5074895;28;20040;-84
2021/06/26 02:56:50;;;;;;;8.13;6.13;;;;;;;16.67;75.21;101145.03;5067750;28;20092;-85
2021/06/26 02:59:17;;;;;;;7.25;6.07;;;;;;;16.85;74.82;101146.31;5058543;28;20049;-83
2021/06/26 03:01:45;;;;;;;7.28;6.40;;;;;;;16.72;75.07;101148.22;5078800;28;20490;-83
2021/06/26 03:04:12;;;;;;;8.48;6.45;;;;;;;16.65;75.34;101142.47;5062823;28;20064;-83
2021/06/26 03:06:39;;;;;;;12.23;5.88;;;;;;;16.62;75.86;101152.50;5079382;28;20375;-83
2021/06/26 03:09:06;;;;;;;9.43;6.40;;;;;;;16.55;75.87;101146.78;5055402;28;20254;-84
2021/06/26 03:11:34;;;;;;;9.70;6.32;;;;;;;16.60;75.98;101143.78;5035166;28;20045;-83
2021/06/26 03:14:01;;;;;;;7.60;6.72;;;;;;;16.58;76.51;101140.41;5041255;28;20072;-84
2021/06/26 03:16:28;;;;;;;9.23;7.18;;;;;;;16.58;76.63;101151.03;5069068;28;20080;-82
2021/06/26 03:18:55;;;;;;;9.13;7.25;;;;;;;16.76;76.29;101148.84;5061429;28;20361;-83
2021/06/26 03:21:23;;;;;;;7.80;6.47;;;;;;;16.64;77.22;101156.72;5062534;28;20481;-84
2021/06/26 03:23:50;;;;;;;7.32;6.55;;;;;;;16.71;76.53;101157.97;5080906;28;20056;-86
2021/06/26 03:26:17;;;;;;;10.63;7.57;;;;;;;16.72;76.25;101153.53;5043138;28;20076;-83
2021/06/26 03:28:44;;;;;;;8.10;6.43;;;;;;;16.67;76.90;101159.16;5078062;28;20110;-84
2021/06/26 03:31:12;;;;;;;10.75;7.25;;;;;;;16.59;77.45;101153.56;5061960;28;20122;-84
2021/06/26 03:33:40;;;;;;;7.55;6.72;;;;;;;16.78;76.47;101160.19;5042541;28;20075;-83
2021/06/26 03:36:08;;;;;;;11.77;7.82;;;;;;;16.69;77.38;101159.88;5052264;28;21264;-82
2021/06/26 03:38:35;;;;;;;8.88;7.05;;;;;;;16.73;77.43;101159.69;5043192;28;20235;-83
2021/06/26 03:41:02;;;;;;;9.52;7.78;;;;;;;16.75;77.31;101171.91;5056111;28;20052;-82
2021/06/26 03:43:29;;;;;;;9.27;6.97;;;;;;;16.79;77.19;101162.72;5058784;28;20131;-84
2021/06/26 03:45:56;;;;;;;8.93;7.97;;;;;;;16.76;77.25;101164.78;5070346;28;20127;-83
2021/06/26 03:48:23;;;;;;;12.15;7.95;;;;;;;16.81;77.70;101163.47;5051270;28;20083;-83
2021/06/26 03:50:51;;;;;;;8.93;7.65;;;;;;;16.88;77.29;101175.31;5053457;28;20066;-83
2021/06/26 03:53:18;;;;;;;12.25;8.00;;;;;;;16.81;77.80;101166.13;5061072;28;20093;-82
2021/06/26 03:55:51;;;;;;;10.95;7.88;;;;;;;16.92;77.32;101165.28;5051025;28;20513;-84
2021/06/26 03:58:26;;;;;;;15.00;7.80;;;;;;;17.02;77.25;101174.28;5042027;28;20044;-83
2021/06/26 04:00:57;;;;;;;11.32;7.68;;;;;;;17.18;76.45;101180.06;5038696;28;20535;-83
2021/06/26 04:03:24;;;;;;;9.30;7.68;;;;;;;17.29;76.25;101179.25;5050721;28;20132;-84
2021/06/26 04:05:51;;;;;;;7.82;7.03;;;;;;;17.40;75.87;101176.59;5049249;28;20131;-82
2021/06/26 04:08:18;;;;;;;10.38;7.60;;;;;;;17.61;75.27;101173.19;5046033;28;20052;-81
2021/06/26 04:10:46;;;;;;;9.45;7.43;;;;;;;17.85;74.30;101175.72;5067753;28;20151;-82
2021/06/26 04:13:13;;;;;;;10.77;7.45;;;;;;;17.99;73.54;101177.28;5062562;28;20391;-81
2021/06/26 04:15:41;;;;;;;10.93;7.32;;;;;;;18.18;72.68;101170.31;5054080;28;20075;-84
2021/06/26 04:18:08;;;;;;;10.48;7.55;;;;;;;18.28;72.46;101173.09;5057041;28;20478;-81
2021/06/26 04:20:35;;;;;;;8.95;7.32;;;;;;;18.46;71.67;101176.00;5073420;28;20284;-83
2021/06/26 04:23:03;;;;;;;15.68;7.63;;;;;;;18.69;70.79;101180.31;5061532;28;20123;-83
2021/06/26 04:25:30;;;;;;;8.90;7.00;;;;;;;19.29;68.95;101179.69;5074642;28;20055;-82
2021/06/26 04:28:08;;;;;;;8.55;7.65;;;;;;;19.99;65.97;101173.47;5067792;28;20431;-82
2021/06/26 04:30:35;;;;;;;8.27;6.85;;;;;;;21.00;62.71;101180.25;5043780;28;20528;-83
2021/06/26 04:33:03;;;;;;;7.63;6.13;;;;;;;22.07;59.43;101172.59;5061261;28;20125;-83
2021/06/26 04:35:31;;;;;;;8.23;6.78;;;;;;;23.57;54.20;101176.09;5052308;28;20497;-82
2021/06/26 04:37:58;;;;;;;7.32;6.32;;;;;;;24.47;51.34;101173.69;5073272;28;20060;-83
2021/06/26 04:40:25;;;;;;;8.77;6.28;;;;;;;25.58;49.08;101179.25;5078879;28;20122;-84
2021/06/26 04:42:53;;;;;;;8.48;5.93;;;;;;;26.18;46.25;101181.28;5056942;28;20068;-84
2021/06/26 04:45:20;;;;;;;13.00;5.93;;;;;;;27.52;43.06;101174.34;5085269;28;20102;-85
2021/06/26 04:47:47;;;;;;;7.72;5.68;;;;;;;26.93;43.73;101174.31;5063134;28;20615;-83
2021/06/26 04:50:15;;;;;;;7.38;6.22;;;;;;;28.08;41.28;101180.03;5030937;28;20048;-85
2021/06/26 04:52:44;;;;;;;6.43;5.75;;;;;;;27.51;41.80;101178.06;5058919;28;20054;-85
2021/06/26 04:55:12;;;;;;;6.32;5.50;;;;;;;27.27;42.34;101180.03;5057827;28;20120;-84
2021/06/26 04:57:39;;;;;;;6.78;6.07;;;;;;;28.09;41.37;101184.41;5020476;28;20040;-85
2021/06/26 05:00:07;;;;;;;9.85;5.90;;;;;;;27.67;41.29;101187.84;5077299;28;20063;-83
2021/06/26 05:02:35;;;;;;;8.43;6.22;;;;;;;28.30;40.82;101188.19;5050792;28;20044;-84
2021/06/26 05:05:03;;;;;;;7.05;5.32;;;;;;;28.22;40.41;101189.97;5078448;28;20448;-84
2021/06/26 05:07:31;;;;;;;8.18;6.10;;;;;;;29.33;37.70;101189.47;5034486;28;20428;-83
2021/06/26 05:09:58;;;;;;;7.30;5.75;;;;;;;29.43;37.96;101193.47;5068092;28;20044;-84
2021/06/26 05:12:25;;;;;;;7.63;5.50;;;;;;;29.95;36.46;101194.78;5085960;28;20047;-83
2021/06/26 05:14:53;;;;;;;9.27;5.78;;;;;;;31.34;33.79;101195.94;5058434;28;20142;-84
2021/06/26 05:17:20;;;;;;;7.95;5.70;;;;;;;31.36;33.14;101197.41;5055979;28;20080;-84
2021/06/26 05:19:47;;;;;;;17.98;5.70;;;;;;;31.43;33.25;101202.81;5087250;28;20513;-85
2021/06/26 05:22:15;;;;;;;7.90;4.70;;;;;;;31.85;32.50;101198.72;5049859;28;20134;-84
2021/06/26 05:24:42;;;;;;;6.60;5.93;;;;;;;32.52;30.91;101201.91;5051388;28;20097;-84
2021/06/26 05:27:09;;;;;;;6.50;5.78;;;;;;;31.21;33.08;101202.25;5048016;28;20063;-84
2021/06/26 05:29:42;;;;;;;8.88;6.43;;;;;;;31.46;32.82;101205.97;5064538;28;20115;-82
2021/06/26 05:32:09;;;;;;;8.30;5.43;;;;;;;31.35;32.42;101206.63;5056972;28;20561;-86
2021/06/26 05:34:40;;;;;;;5.68;5.18;;;;;;;31.99;32.02;101208.50;5052281;28;20082;-85
2021/06/26 05:37:07;;;;;;;9.05;5.93;;;;;;;31.41;31.95;101205.75;5051553;28;20066;-85
2021/06/26 05:39:35;;;;;;;8.10;5.30;;;;;;;29.35;35.90;101209.09;5042614;28;20135;-85
2021/06/26 05:42:02;;;;;;;8.57;5.20;;;;;;;28.19;38.12;101219.28;5032814;28;20048;-86
2021/06/26 05:44:29;;;;;;;7.05;6.07;;;;;;;27.03;40.19;101212.69;5066839;28;20075;-85
2021/06/26 05:46:56;;;;;;;5.82;5.22;;;;;;;26.84;41.32;101210.50;5025741;28;20350;-87
2021/06/26 05:49:24;;;;;;;7.85;5.90;;;;;;;26.61;41.74;101215.94;5038846;28;20040;-85
2021/06/26 05:51:51;;;;;;;9.80;5.40;;;;;;;25.93;43.26;101221.06;5068871;28;20048;-85
2021/06/26 05:54:18;;;;;;;7.47;5.85;;;;;;;24.93;45.96;101211.69;5056609;28;20132;-85
2021/06/26 05:56:46;;;;;;;8.32;5.55;;;;;;;24.62;46.88;101219.59;5040185;28;20130;-84
2021/06/26 05:59:13;;;;;;;9.30;5.90;;;;;;;24.37;47.60;101213.38;5048000;28;20222;-84
2021/06/26 06:01:40;;;;;;;10.57;5.55;;;;;;;24.55;47.23;101214.06;5034775;28;20116;-86
2021/06/26 06:04:08;;;;;;;7.97;6.15;;;;;;;24.26;47.80;101209.94;5062594;28;20048;-86
2021/06/26 06:06:36;;;;;;;7.25;5.82;;;;;;;24.17;48.22;101218.16;5059445;28;20136;-84
2021/06/26 06:09:05;;;;;;;8.50;6.15;;;;;;;23.94;49.34;101217.94;5046998;28;20156;-85
2021/06/26 06:11:32;;;;;;;7.90;6.38;;;;;;;23.65;49.95;101212.97;5058358;28;20131;-83
2021/06/26 06:14:00;;;;;;;9.57;5.60;;;;;;;24.16;49.37;101211.13;5033770;28;20511;-84
2021/06/26 06:16:27;;;;;;;8.27;6.32;;;;;;;24.27;48.46;101208.09;5065046;28;20086;-86
2021/06/26 06:18:54;;;;;;;7.88;5.68;;;;;;;24.52;47.92;101208.16;5084965;28;20457;-86
2021/06/26 06:21:21;;;;;;;13.30;7.07;;;;;;;24.32;48.50;101207.63;5061457;28;20375;-85
2021/06/26 06:23:49;;;;;;;7.50;5.68;;;;;;;25.20;46.64;101203.25;5065200;28;20056;-86
2021/06/26 06:26:16;;;;;;;9.60;5.78;;;;;;;24.63;47.96;101213.22;5062941;28;20140;-84
2021/06/26 06:28:43;;;;;;;8.52;6.13;;;;;;;24.96;46.79;101217.59;5069274;28;20044;-84
2021/06/26 06:31:10;;;;;;;9.77;6.30;;;;;;;25.28;45.86;101212.34;5061266;28;20044;-85
2021/06/26 06:33:38;;;;;;;9.43;6.07;;;;;;;25.80;45.58;101218.09;5062247;28;20127;-84
2021/06/26 06:36:07;;;;;;;8.75;5.57;;;;;;;25.39;46.14;101214.66;5061837;28;20083;-84
2021/06/26 06:38:35;;;;;;;8.57;6.22;;;;;;;25.50;45.67;101214.31;5037927;28;20049;-85
2021/06/26 06:41:02;;;;;;;8.55;5.78;;;;;;;26.28;43.69;101216.16;5061634;28;20060;-84
2021/06/26 06:43:30;;;;;;;9.52;5.63;;;;;;;25.46;44.48;101211.13;5077369;28;20127;-84
2021/06/26 06:45:57;;;;;;;9.20;5.28;;;;;;;24.90;46.06;101217.41;5028789;28;20144;-84
2021/06/26 06:48:24;;;;;;;10.18;5.85;;;;;;;24.78;46.46;101218.78;5065287;28;20059;-83
2021/06/26 06:50:51;;;;;;;7.72;5.20;;;;;;;25.48;45.05;101216.31;5055455;28;20122;-85
2021/06/26 06:53:18;;;;;;;10.00;5.40;;;;;;;24.21;47.36;101222.22;5051514;28;20056;-85
2021/06/26 06:55:50;;;;;;;11.10;5.68;;;;;;;25.56;44.46;101216.31;5030359;28;20052;-86
2021/06/26 06:58:18;;;;;;;7.18;5.45;;;;;;;25.83;43.53;101225.84;5052633;28;20068;-87
2021/06/26 07:00:46;;;;;;;6.13;4.80;;;;;;;26.27;43.08;101234.19;5059442;28;20093;-85
2021/06/26 07:03:14;;;;;;;7.63;4.90;;;;;;;26.54;41.65;101225.78;5064071;28;20097;-84
2021/06/26 07:05:41;;;;;;;8.40;5.05;;;;;;;27.90;39.45;101221.03;5060197;28;20166;-85
2021/06/26 07:08:08;;;;;;;6.38;4.70;;;;;;;29.53;36.45;101217.53;5052401;28;20078;-86
2021/06/26 07:10:36;;;;;;;7.93;4.40;;;;;;;30.29;34.60;101222.88;5070596;28;20044;-85
2021/06/26 07:13:03;;;;;;;11.00;3.95;;;;;;;27.86;38.38;101221.63;5052111;28;20159;-85
2021/06/26 07:15:31;;;;;;;7.72;4.70;;;;;;;26.43;41.26;101222.50;5056634;28;20059;-86
2021/06/26 07:18:00;;;;;;;7.18;5.00;;;;;;;28.74;36.86;101223.22;5041662;28;20056;-86
2021/06/26 07:20:27;;;;;;;6.05;4.35;;;;;;;29.39;35.38;101223.91;5074585;28;20116;-85
2021/06/26 07:22:55;;;;;;;7.18;4.03;;;;;;;28.60;36.25;101221.44;5081008;28;20120;-87
2021/06/26 07:25:23;;;;;;;6.35;4.30;;;;;;;31.21;32.49;101205.81;5085907;28;20056;-85
2021/06/26 07:27:50;;;;;;;5.72;3.20;;;;;;;33.66;27.27;101210.69;5070993;28;20467;-86
2021/06/26 07:30:18;;;;;;;6.97;3.78;;;;;;;34.09;26.30;101213.31;5064193;28;20057;-88
2021/06/26 07:32:46;;;;;;;7.35;4.35;;;;;;;32.66;27.93;101211.66;5057800;28;20127;-87
2021/06/26 07:35:14;;;;;;;6.38;3.33;;;;;;;34.38;24.98;101208.03;5081592;28;20474;-87
2021/06/26 07:37:42;;;;;;;6.00;3.75;;;;;;;34.25;23.80;101209.91;5061278;28;20084;-85
2021/06/26 07:40:10;;;;;;;7.07;3.88;;;;;;;34.96;23.69;101201.84;5077797;28;20075;-83
2021/06/26 07:42:37;;;;;;;7.03;3.60;;;;;;;30.80;29.83;101200.59;5046370;28;20040;-85
2021/06/26 07:45:05;;;;;;;5.22;3.85;;;;;;;32.95;26.25;101201.97;5061419;28;20036;-85
2021/06/26 07:47:33;;;;;;;4.72;3.50;;;;;;;33.47;25.70;101185.31;5062379;28;20556;-87
2021/06/26 07:50:02;;;;;;;4.32;3.17;;;;;;;34.37;25.33;101200.91;5068859;28;20117;-84
2021/06/26 07:52:30;;;;;;;5.32;4.38;;;;;;;30.67;28.54;101195.16;5083886;28;20640;-85
2021/06/26 07:54:59;;;;;;;5.82;4.25;;;;;;;34.26;24.38;101192.44;5063974;28;20052;-87
2021/06/26 07:57:26;;;;;;;6.20;4.13;;;;;;;34.56;24.09;101190.75;5050513;28;20076;-86
2021/06/26 07:59:53;;;;;;;12.95;4.40;;;;;;;32.33;26.31;101191.94;5068681;28;20485;-87
2021/06/26 08:02:21;;;;;;;6.68;4.78;;;;;;;34.95;23.42;101186.50;5093150;28;20094;-87
2021/06/26 08:04:50;;;;;;;5.00;4.10;;;;;;;34.37;23.13;101188.09;5058650;28;20139;-88
2021/06/26 08:07:19;;;;;;;5.20;4.28;;;;;;;33.27;24.28;101178.13;5080991;28;20041;-85
2021/06/26 08:09:47;;;;;;;8.38;3.58;;;;;;;32.36;25.83;101184.16;5054855;28;20250;-86
2021/06/26 08:12:16;;;;;;;8.10;4.30;;;;;;;32.23;25.98;101190.53;5056089;28;20135;-86
2021/06/26 08:14:44;;;;;;;5.57;4.28;;;;;;;30.66;27.95;101190.75;5056438;28;20056;-86
2021/06/26 08:17:12;;;;;;;4.78;4.10;;;;;;;28.77;31.49;101188.44;5090364;28;20135;-87
2021/06/26 08:19:40;;;;;;;6.05;4.38;;;;;;;26.13;35.50;101191.78;5038922;28;20048;-87
2021/06/26 08:22:07;;;;;;;4.13;3.38;;;;;;;26.94;34.33;101184.09;5057215;28;20068;-86
2021/06/26 08:24:35;;;;;;;6.38;3.97;;;;;;;27.14;35.29;101181.72;5049561;28;20075;-87
2021/06/26 08:27:03;;;;;;;5.88;4.30;;;;;;;30.30;29.74;101181.09;5062445;28;20052;-87
2021/06/26 08:29:30;;;;;;;5.53;3.47;;;;;;;29.80;29.50;101174.25;5056017;28;20089;-87
2021/06/26 08:31:59;;;;;;;5.90;3.72;;;;;;;30.54;28.47;101178.84;5037725;28;20094;-86
2021/06/26 08:34:27;;;;;;;5.38;3.70;;;;;;;30.76;28.74;101180.34;5062751;28;20049;-87
2021/06/26 08:36:54;;;;;;;5.97;4.15;;;;;;;30.15;29.10;101180.44;5061098;28;20060;-86
2021/06/26 08:39:21;;;;;;;4.20;3.67;;;;;;;29.90;28.78;101174.69;5053768;28;20044;-86
2021/06/26 08:41:49;;;;;;;4.57;3.95;;;;;;;28.23;31.55;101170.00;5072537;28;20044;-86
2021/06/26 08:44:18;;;;;;;6.80;3.90;;;;;;;27.38;33.29;101177.88;5076801;28;20139;-86
2021/06/26 08:46:49;;;;;;;5.28;4.00;;;;;;;26.62;34.21;101177.97;5046452;28;20068;-87
2021/06/26 08:49:17;;;;;;;13.90;5.25;;;;;;;25.92;34.91;101181.63;5079513;28;20147;-85
2021/06/26 08:51:44;;;;;;;5.45;4.32;;;;;;;24.85;37.00;101182.06;5050620;28;20086;-87
2021/06/26 08:54:16;;;;;;;6.35;4.68;;;;;;;24.62;37.30;101180.06;5084225;28;20070;-88
2021/06/26 08:56:46;;;;;;;6.90;4.03;;;;;;;25.57;35.56;101176.69;5050205;28;20071;-86
2021/06/26 08:59:16;;;;;;;5.57;4.68;;;;;;;25.95;34.48;101185.84;5075330;28;20142;-86
2021/06/26 09:01:44;;;;;;;8.63;3.72;;;;;;;26.91;32.84;101170.94;5054629;28;20066;-84
2021/06/26 09:04:18;;;;;;;11.30;4.30;;;;;;;27.21;32.53;101178.09;5074695;28;20040;-85
2021/06/26 09:06:53;;;;;;;6.38;4.18;;;;;;;26.84;32.71;101176.25;5073015;28;20388;-85
2021/06/26 09:09:37;;;;;;;7.15;4.85;;;;;;;26.26;33.80;101173.16;5096758;28;20120;-85
2021/06/26 09:12:10;;;;;;;9.48;4.40;;;;;;;27.08;32.77;101169.75;5057424;28;20044;-86
2021/06/26 09:14:38;;;;;;;6.30;3.78;;;;;;;27.07;32.46;101170.78;5066027;28;20067;-85
2021/06/26 09:17:06;;;;;;;4.28;3.92;;;;;;;27.74;31.91;101168.00;5086458;28;20075;-88
2021/06/26 09:19:36;;;;;;;7.28;4.88;;;;;;;27.54;31.94;101160.63;5060262;28;20122;-86
2021/06/26 09:22:08;;;;;;;5.03;3.60;;;;;;;27.25;32.11;101171.28;5060865;28;20060;-86
2021/06/26 09:24:46;;;;;;;7.50;4.55;;;;;;;26.98;33.42;101161.91;5043278;28;20362;-87
2021/06/26 09:27:20;;;;;;;5.50;3.50;;;;;;;26.40;34.65;101165.28;5091116;28;20079;-85
2021/06/26 09:29:50;;;;;;;4.88;3.67;;;;;;;25.79;35.92;101170.56;5042338;28;20121;-84
2021/06/26 09:32:25;;;;;;;5.35;4.28;;;;;;;25.61;35.89;101168.09;5072896;28;20462;-87
2021/06/26 09:34:53;;;;;;;5.35;4.40;;;;;;;24.95;35.68;101167.44;5069414;28;20105;-86
2021/06/26 09:37:27;;;;;;;8.65;4.13;;;;;;;25.19;35.49;101174.66;5066403;28;20364;-86
2021/06/26 09:39:58;;;;;;;6.32;5.20;;;;;;;25.80;34.93;101176.78;5073099;28;20052;-87
2021/06/26 09:42:28;;;;;;;8.55;4.93;;;;;;;26.06;33.78;101163.81;5049211;28;20155;-86
2021/06/26 09:45:01;;;;;;;5.75;4.95;;;;;;;26.53;33.13;101159.31;5053900;28;20060;-86
2021/06/26 09:47:42;;;;;;;6.65;4.00;;;;;;;26.20;33.08;101156.81;5035804;28;20556;-85
2021/06/26 09:50:24;;;;;;;5.88;4.70;;;;;;;26.01;33.49;101150.03;5039248;28;20358;-85
2021/06/26 09:52:53;;;;;;;6.15;4.00;;;;;;;25.55;34.51;101167.97;5076636;28;20140;-84
2021/06/26 09:55:24;;;;;;;31.02;5.28;;;;;;;25.86;33.92;101160.75;5058588;28;20079;-84
2021/06/26 09:57:56;;;;;;;4.55;3.70;;;;;;;25.48;34.38;101152.47;5061372;28;20036;-86
2021/06/26 10:00:26;;;;;;;8.18;5.38;;;;;;;25.55;34.12;101152.63;5036993;28;20056;-87
2021/06/26 10:02:54;;;;;;;6.47;4.15;;;;;;;25.99;34.14;101150.22;5049552;28;20091;-87
2021/06/26 10:05:21;;;;;;;6.90;4.63;;;;;;;26.09;33.89;101150.00;5020154;28;20071;-87
2021/06/26 10:07:52;;;;;;;6.93;4.07;;;;;;;26.06;34.30;101149.50;5037342;28;20068;-86
2021/06/26 10:10:22;;;;;;;9.38;4.00;;;;;;;25.39;34.85;101147.28;5053235;28;20130;-86
2021/06/26 10:12:59;;;;;;;9.27;4.13;;;;;;;25.35;34.97;101154.03;5031070;28;20044;-84
2021/06/26 10:15:30;;;;;;;5.63;3.97;;;;;;;25.30;35.13;101154.56;5022927;28;20049;-88
2021/06/26 10:17:58;;;;;;;6.40;4.28;;;;;;;25.51;34.25;101153.97;5031578;28;20053;-87
2021/06/26 10:20:27;;;;;;;8.25;3.85;;;;;;;25.45;34.34;101154.69;5022265;28;20040;-84
2021/06/26 10:23:00;;;;;;;11.90;3.70;;;;;;;25.42;33.73;101163.97;5054779;28;20061;-86
2021/06/26 10:25:32;;;;;;;7.25;3.55;;;;;;;26.14;32.13;101163.78;5052735;28;20049;-84
2021/06/26 10:28:08;;;;;;;13.98;3.33;;;;;;;26.25;32.80;101162.50;5046358;28;20124;-85
2021/06/26 10:30:36;;;;;;;4.55;3.83;;;;;;;26.02;32.65;101162.50;5042726;28;20037;-88
2021/06/26 10:33:07;;;;;;;5.93;4.05;;;;;;;26.18;32.24;101166.97;5045654;28;20075;-85
2021/06/26 10:35:36;;;;;;;6.43;3.78;;;;;;;25.63;32.79;101159.84;5027689;28;20139;-85
2021/06/26 10:38:10;;;;;;;5.07;3.78;;;;;;;25.33;33.04;101158.78;5038377;28;20045;-88
2021/06/26 10:40:55;;;;;;;9.18;3.60;;;;;;;25.53;32.21;101157.34;5066493;28;20067;-87
2021/06/26 10:43:28;;;;;;;6.70;3.95;;;;;;;26.38;32.69;101143.84;5015870;28;20049;-84
2021/06/26 10:46:07;;;;;;;3.47;3.13;;;;;;;26.61;31.02;101140.31;5056675;28;20072;-87
2021/06/26 10:48:37;;;;;;;5.40;2.78;;;;;;;26.60;29.59;101133.25;5018548;28;20056;-86
2021/06/26 10:51:10;;;;;;;5.47;2.70;;;;;;;26.70;29.30;101142.78;5040471;28;20049;-87
2021/06/26 10:53:49;;;;;;;4.43;2.65;;;;;;;26.69;28.11;101146.47;5035340;28;20061;-87
2021/06/26 10:56:31;;;;;;;6.10;2.80;;;;;;;26.71;28.82;101143.63;5063599;28;20045;-89
2021/06/26 10:59:08;;;;;;;4.82;3.05;;;;;;;26.99;28.13;101139.28;5057733;28;20056;-89
2021/06/26 11:01:35;;;;;;;4.90;2.50;;;;;;;26.91;26.98;101135.81;5044973;28;20220;-84
2021/06/26 11:04:09;;;;;;;4.85;3.05;;;;;;;26.03;28.19;101137.22;5074368;28;20135;-86
2021/06/26 11:06:38;;;;;;;4.32;3.00;;;;;;;25.73;28.63;101139.72;5034125;28;20537;-83
2021/06/26 11:09:10;;;;;;;4.10;2.78;;;;;;;26.28;28.63;101129.78;5039386;28;20053;-86
2021/06/26 11:11:48;;;;;;;7.00;3.20;;;;;;;25.93;27.64;101134.72;5034911;28;20105;-85
2021/06/26 11:14:19;;;;;;;3.67;2.50;;;;;;;26.43;27.76;101127.13;5032495;28;20122;-86
2021/06/26 11:16:49;;;;;;;5.55;2.65;;;;;;;26.41;28.46;101134.56;5034266;28;20045;-84
2021/06/26 11:19:17;;;;;;;3.92;2.95;;;;;;;26.86;27.80;101136.38;5035073;28;20068;-86
2021/06/26 11:21:52;;;;;;;3.60;2.90;;;;;;;26.73;26.54;101126.19;5032945;28;20131;-86
2021/06/26 11:24:32;;;;;;;4.05;2.65;;;;;;;26.09;27.48;101123.00;5047285;28;20132;-87
2021/06/26 11:27:00;;;;;;;2.80;2.60;;;;;;;26.21;27.95;101126.13;5051469;28;20219;-87
2021/06/26 11:29:48;;;;;;;4.38;2.88;;;;;;;26.45;28.02;101125.13;5048824;28;20458;-84
2021/06/26 11:32:21;;;;;;;5.38;2.78;;;;;;;26.69;27.73;101124.88;5023119;28;20095;-86
2021/06/26 11:34:53;;;;;;;3.45;2.50;;;;;;;26.72;27.34;101129.09;5051966;28;20048;-86
2021/06/26 11:37:21;;;;;;;3.03;2.38;;;;;;;26.42;26.85;101130.84;5035206;28;20144;-87